Time;durP1;ratioP1;P1;durP2;ratioP2;P2;SDS_P1;SDS_P2;PMS_P1;PMS_P2;Temp;Humidity;BMP_temperature;BMP_pressure;BME280_temperature;BME280_humidity;BME280_pressure;Samples;Min_cycle;Max_cycle;Signal;HPM_P1;HPM_P2
2022/12/08 00:00:18;;;;;;;12.50;5.80;;;-2.20;1.00;-1.90;93389.00;;;;7397729;19;20155;-75
2022/12/08 00:02:45;;;;;;;12.77;5.60;;;-2.30;1.00;-1.90;93412.00;;;;7398184;19;20623;-75
2022/12/08 00:10:56;;;;;;;9.13;5.23;;;-2.30;1.00;-2.20;93370.00;;;;7396937;19;20182;-75
2022/12/08 00:13:23;;;;;;;11.47;5.40;;;-2.40;1.00;-2.10;93377.00;;;;7397169;19;20160;-75
2022/12/08 00:15:51;;;;;;;9.87;5.27;;;-2.40;1.00;-2.20;93395.00;;;;7399575;19;20201;-75
2022/12/08 00:18:25;;;;;;;9.77;5.37;;;-2.40;1.00;-2.30;93396.00;;;;7398516;19;20160;-75
2022/12/08 00:20:57;;;;;;;12.27;4.93;;;-2.50;1.00;-2.20;93400.00;;;;7397269;19;20148;-74
2022/12/08 00:23:25;;;;;;;9.93;5.10;;;-2.50;1.00;-2.10;93395.00;;;;7397295;19;20153;-75
2022/12/08 00:26:05;;;;;;;10.07;5.77;;;-2.40;1.00;-2.00;93388.00;;;;7397302;19;20155;-75
2022/12/08 00:28:33;;;;;;;11.27;5.33;;;-2.40;1.00;-2.10;93386.00;;;;7396065;19;20183;-75
2022/12/08 00:31:10;;;;;;;11.50;5.07;;;-2.40;1.00;-2.10;93381.00;;;;7396169;19;20137;-75
2022/12/08 00:33:38;;;;;;;12.40;5.37;;;-2.40;1.00;-2.30;93372.00;;;;7397993;19;20144;-75
2022/12/08 00:36:08;;;;;;;10.33;5.67;;;-2.50;1.00;-2.40;93374.00;;;;7396621;19;20166;-75
2022/12/08 00:38:43;;;;;;;10.40;5.03;;;-2.50;1.00;-2.30;93356.00;;;;7398354;19;20127;-75
2022/12/08 00:42:10;;;;;;;8.80;5.13;;;-2.50;1.00;-2.30;93371.00;;;;7397073;19;20153;-75
2022/12/08 00:44:22;;;;;;;10.17;5.10;;;-2.60;1.00;-2.40;93370.00;;;;7395519;19;20160;-74
2022/12/08 00:46:56;;;;;;;10.80;5.47;;;-2.60;1.00;-2.50;93349.00;;;;7396660;19;20618;-74
2022/12/08 00:49:29;;;;;;;8.53;4.97;;;;;-2.40;93370.00;;;;7396110;19;20139;-75
2022/12/08 00:51:57;;;;;;;11.83;5.30;;;-2.70;1.00;-2.50;93354.00;;;;7396525;19;20188;-76
2022/12/08 00:54:24;;;;;;;11.80;4.97;;;-2.70;1.00;-2.50;93343.00;;;;7398450;19;20133;-75
2022/12/08 00:56:57;;;;;;;10.40;5.07;;;-2.70;1.00;-2.50;93331.00;;;;7397365;19;20144;-75
2022/12/08 00:59:24;;;;;;;11.43;5.33;;;-2.70;1.00;-2.60;93337.00;;;;7397842;19;20464;-75
2022/12/08 01:01:51;;;;;;;9.47;4.90;;;-2.70;1.00;-2.50;93335.00;;;;7396446;19;20136;-75
2022/12/08 01:04:25;;;;;;;11.27;4.70;;;-2.80;1.00;-2.50;93365.00;;;;7398068;19;20464;-75
2022/12/08 01:06:53;;;;;;;10.03;4.77;;;-2.70;99.90;-2.50;93351.00;;;;7391630;19;20177;-75
2022/12/08 01:09:20;;;;;;;12.03;5.23;;;-2.60;1.00;-2.60;93355.00;;;;7390611;19;20133;-75
2022/12/08 01:11:53;;;;;;;11.33;5.17;;;-2.60;1.00;-2.50;93356.00;;;;7395668;19;20508;-75
2022/12/08 01:14:20;;;;;;;10.70;5.23;;;-2.60;1.00;-2.50;93330.00;;;;7396560;19;20149;-75
2022/12/08 01:16:47;;;;;;;13.60;5.43;;;-2.60;1.00;-2.50;93347.00;;;;7396726;19;20136;-74
2022/12/08 01:19:21;;;;;;;14.97;5.90;;;-2.60;1.00;-2.60;93333.00;;;;7396225;19;20522;-75
2022/12/08 01:21:48;;;;;;;10.80;5.10;;;-2.70;1.00;-2.60;93345.00;;;;7398047;19;20133;-74
2022/12/08 01:24:19;;;;;;;12.30;5.53;;;-2.70;1.00;-2.50;93382.00;;;;7396112;19;20144;-75
2022/12/08 01:26:53;;;;;;;11.50;5.23;;;-2.70;1.00;-2.60;93370.00;;;;7395540;19;20634;-75
2022/12/08 01:29:21;;;;;;;8.90;5.33;;;-2.70;1.00;-2.70;93354.00;;;;7396202;19;20176;-75
2022/12/08 01:31:48;;;;;;;10.67;5.17;;;-2.80;1.00;-2.70;93371.00;;;;7393432;19;20536;-74
2022/12/08 01:34:21;;;;;;;7.80;4.97;;;-2.80;1.00;-2.80;93369.00;;;;7395426;19;20159;-74
2022/12/08 01:36:48;;;;;;;9.27;5.10;;;-2.90;1.00;-2.70;93349.00;;;;7395486;19;20196;-75
2022/12/08 01:39:17;;;;;;;10.33;5.10;;;-2.90;1.00;-2.80;93364.00;;;;7396376;19;20140;-75
2022/12/08 01:41:51;;;;;;;9.17;5.10;;;-2.90;1.00;-2.80;93356.00;;;;7400056;19;20144;-75
2022/12/08 01:44:25;;;;;;;10.63;5.67;;;-2.90;1.00;-2.80;93361.00;;;;7399945;19;20148;-75
2022/12/08 01:47:06;;;;;;;17.67;6.07;;;-2.90;1.00;-2.70;93349.00;;;;7402953;19;20148;-75
2022/12/08 01:49:35;;;;;;;13.57;5.53;;;-2.90;1.00;-2.60;93358.00;;;;7401625;19;20208;-75
2022/12/08 01:52:20;;;;;;;13.53;6.43;;;-2.80;1.00;-2.60;93332.00;;;;7402849;19;20231;-75
2022/12/08 01:55:15;;;;;;;13.67;5.50;;;-2.80;1.00;-2.40;93345.00;;;;7401511;19;20154;-75
2022/12/08 01:58:00;;;;;;;10.73;6.13;;;-2.70;1.00;-2.60;93335.00;;;;7398545;19;20498;-75
2022/12/08 02:00:27;;;;;;;15.17;6.60;;;-2.80;1.00;-2.60;93316.00;;;;7403634;19;20609;-75
2022/12/08 02:03:07;;;;;;;10.27;5.43;;;-2.80;1.00;-2.60;93353.00;;;;7402604;19;20138;-75
2022/12/08 02:05:39;;;;;;;14.33;6.43;;;-2.80;1.00;-2.70;93344.00;;;;7402129;19;20133;-74
2022/12/08 02:08:13;;;;;;;14.43;6.60;;;-2.80;1.00;-2.60;93339.00;;;;7401938;19;20165;-75
2022/12/08 02:10:41;;;;;;;12.70;6.23;;;-2.80;1.00;-2.50;93324.00;;;;7402496;19;20119;-75
2022/12/08 02:13:15;;;;;;;13.37;7.00;;;-2.80;1.00;-2.70;93295.00;;;;7401486;19;20170;-75
2022/12/08 02:16:14;;;;;;;12.60;6.57;;;-2.80;1.00;-2.70;93334.00;;;;7403593;19;20155;-75
2022/12/08 02:19:59;;;;;;;12.77;6.47;;;-2.80;1.00;-2.60;93323.00;;;;7403440;19;20228;-75
2022/12/08 02:23:21;;;;;;;16.97;6.77;;;-2.90;1.00;-2.70;93315.00;;;;7401229;19;20152;-75
2022/12/08 02:26:39;;;;;;;15.27;6.83;;;-2.90;1.00;-2.60;93317.00;;;;7401727;19;20614;-75
2022/12/08 02:29:34;;;;;;;13.43;6.63;;;-2.90;1.00;-2.70;93316.00;;;;7400303;19;20365;-74
2022/12/08 02:32:04;;;;;;;16.83;6.40;;;-2.90;1.00;-2.60;93306.00;;;;7398367;19;20166;-74
2022/12/08 02:35:12;;;;;;;15.60;7.33;;;-2.90;1.00;-2.70;93299.00;;;;7401234;19;20168;-75
2022/12/08 02:38:07;;;;;;;12.70;6.90;;;-2.90;1.00;-2.70;93281.00;;;;7402156;19;20206;-75
2022/12/08 02:41:28;;;;;;;12.57;7.23;;;-2.90;1.00;-2.60;93302.00;;;;7401009;19;20155;-74
2022/12/08 02:44:20;;;;;;;11.17;6.23;;;-2.90;1.00;-2.60;93312.00;;;;7400375;19;20199;-75
2022/12/08 02:47:17;;;;;;;17.43;7.53;;;-2.80;1.00;-2.60;93305.00;;;;7399979;19;20500;-75
2022/12/08 02:49:45;;;;;;;14.13;6.97;;;-2.80;1.00;-2.70;93300.00;;;;7399967;19;20172;-75
2022/12/08 02:52:18;;;;;;;17.00;7.37;;;-2.90;1.00;-2.80;93298.00;;;;7399419;19;20152;-75
2022/12/08 02:54:56;;;;;;;13.67;7.10;;;-3.00;1.00;-2.80;93289.00;;;;7400354;19;20199;-75
2022/12/08 02:58:08;;;;;;;15.60;7.07;;;-3.00;1.00;-2.80;93303.00;;;;7396295;19;20621;-74
2022/12/08 03:00:58;;;;;;;16.27;7.00;;;-3.00;1.00;-2.80;93286.00;;;;7401578;19;20172;-75
2022/12/08 03:03:54;;;;;;;14.60;6.73;;;-3.10;1.00;-2.80;93301.00;;;;7401823;19;20132;-75
2022/12/08 03:06:54;;;;;;;19.67;7.30;;;-3.10;1.00;-2.80;93302.00;;;;7399514;19;20509;-74
2022/12/08 03:09:55;;;;;;;15.70;7.27;;;-3.00;1.00;-2.90;93298.00;;;;7398994;19;20155;-74
2022/12/08 03:12:43;;;;;;;16.80;7.77;;;-3.00;1.00;-2.80;93296.00;;;;7401451;19;20124;-74
2022/12/08 03:15:20;;;;;;;13.27;7.77;;;-3.00;1.00;-2.80;93270.00;;;;7398809;19;20150;-75
2022/12/08 03:17:55;;;;;;;16.30;7.50;;;-3.00;1.00;-2.80;93292.00;;;;7399006;19;20203;-75
2022/12/08 03:20:33;;;;;;;15.67;7.67;;;-2.90;1.00;-2.90;93267.00;;;;7399534;19;20183;-74
2022/12/08 03:23:07;;;;;;;16.67;7.43;;;-3.00;1.00;-2.80;93269.00;;;;7399176;19;20171;-75
2022/12/08 03:26:09;;;;;;;15.33;7.50;;;-3.10;1.00;-2.80;93276.00;;;;7400730;19;20474;-75
2022/12/08 03:28:37;;;;;;;19.60;7.27;;;-3.10;1.00;-2.80;93272.00;;;;7399176;19;20152;-75
2022/12/08 03:31:14;;;;;;;17.53;7.43;;;-3.10;1.00;-2.90;93258.00;;;;7399744;19;20215;-74
2022/12/08 03:33:46;;;;;;;15.00;8.03;;;-3.20;1.00;-2.80;93265.00;;;;7400822;19;20156;-75
2022/12/08 03:36:21;;;;;;;16.60;7.73;;;-3.10;1.00;-2.90;93251.00;;;;7399488;19;20669;-74
2022/12/08 03:38:53;;;;;;;17.23;7.50;;;-3.20;1.00;-2.90;93254.00;;;;7399682;19;20143;-74
2022/12/08 03:41:21;;;;;;;15.67;7.67;;;-3.10;1.00;-2.80;93251.00;;;;7399644;19;20147;-75
2022/12/08 03:43:58;;;;;;;15.07;8.37;;;-3.10;1.00;-2.80;93255.00;;;;7399486;19;20126;-74
2022/12/08 03:46:32;;;;;;;14.43;7.30;;;-3.10;1.00;-2.90;93229.00;;;;7398350;19;20619;-75
2022/12/08 03:49:05;;;;;;;17.33;7.80;;;-3.10;1.00;-2.90;93225.00;;;;7400162;19;20161;-75
2022/12/08 03:51:32;;;;;;;21.90;7.73;;;-3.10;1.00;-2.90;93220.00;;;;7398174;19;20135;-74
2022/12/08 03:54:00;;;;;;;17.87;7.53;;;-3.10;1.00;-2.80;93216.00;;;;7397792;19;20475;-75
2022/12/08 03:56:37;;;;;;;20.03;7.43;;;-3.10;1.00;-2.80;93239.00;;;;7395310;19;20152;-74
2022/12/08 03:59:06;;;;;;;15.87;7.67;;;-3.10;1.00;-2.90;93220.00;;;;7399232;19;20149;-74
2022/12/08 04:01:33;;;;;;;20.23;8.03;;;-3.10;1.00;-3.00;93229.00;;;;7397634;19;20156;-74
2022/12/08 04:04:07;;;;;;;17.90;7.47;;;-3.20;1.00;-3.00;93217.00;;;;7396597;19;20587;-75
2022/12/08 04:06:34;;;;;;;16.17;7.67;;;-3.20;1.00;-3.10;93232.00;;;;7398104;19;20156;-74
2022/12/08 04:09:02;;;;;;;17.03;8.20;;;-3.20;1.00;-3.10;93230.00;;;;7399226;19;20138;-74
2022/12/08 04:11:36;;;;;;;15.57;7.30;;;-3.20;1.00;-3.10;93211.00;;;;7398459;19;20130;-75
2022/12/08 04:14:03;;;;;;;14.30;7.40;;;-3.30;1.00;-2.90;93225.00;;;;7396459;19;20160;-74
2022/12/08 04:16:30;;;;;;;15.33;7.07;;;-3.20;1.00;-3.00;93192.00;;;;7397520;19;20154;-75
2022/12/08 04:19:04;;;;;;;13.97;7.57;;;-3.20;1.00;-2.90;93207.00;;;;7399842;19;20589;-75
2022/12/08 04:21:32;;;;;;;15.83;7.03;;;-3.10;1.00;-3.00;93216.00;;;;7397337;19;20138;-75
2022/12/08 04:24:01;;;;;;;18.30;8.37;;;-3.20;1.00;-3.00;93206.00;;;;7397081;19;20138;-76
2022/12/08 04:26:34;;;;;;;18.30;7.80;;;-3.20;1.00;-3.10;93180.00;;;;7399253;19;20159;-75
2022/12/08 04:29:01;;;;;;;18.83;7.77;;;-3.20;1.00;-3.00;93205.00;;;;7398144;19;20195;-75
2022/12/08 04:31:28;;;;;;;14.67;7.37;;;-3.20;1.00;-2.90;93213.00;;;;7398161;19;20588;-75
2022/12/08 04:34:03;;;;;;;18.00;8.20;;;-3.30;1.00;-3.00;93211.00;;;;7397784;19;20641;-75
2022/12/08 04:36:30;;;;;;;13.83;6.63;;;-3.20;1.00;-3.00;93218.00;;;;7397415;19;20548;-74
2022/12/08 04:38:57;;;;;;;13.43;6.93;;;-3.20;1.00;-3.00;93217.00;;;;7396888;19;20139;-75
2022/12/08 04:41:30;;;;;;;15.67;7.73;;;-3.20;1.00;-3.10;93206.00;;;;7398220;19;20208;-75
2022/12/08 04:43:57;;;;;;;16.97;7.40;;;-3.20;1.00;-3.00;93189.00;;;;7397988;19;20130;-74
2022/12/08 04:46:24;;;;;;;14.17;7.10;;;-3.20;1.00;-2.90;93215.00;;;;7395265;19;20198;-75
2022/12/08 04:48:58;;;;;;;15.03;7.50;;;-3.20;1.00;-2.80;93190.00;;;;7398383;19;20140;-75
2022/12/08 04:51:26;;;;;;;18.13;8.27;;;-3.20;1.00;-2.80;93201.00;;;;7395509;19;20156;-75
2022/12/08 04:53:53;;;;;;;17.30;7.60;;;-3.10;1.00;-2.80;93197.00;;;;7397109;19;20218;-75
2022/12/08 04:56:26;;;;;;;16.97;7.93;;;-3.10;1.00;-2.90;93193.00;;;;7395086;19;21019;-75
2022/12/08 04:58:54;;;;;;;16.10;7.47;;;-3.10;1.00;-2.90;93187.00;;;;7399014;19;20163;-75
2022/12/08 05:01:21;;;;;;;16.20;7.43;;;-3.10;1.00;-2.90;93188.00;;;;7397019;19;20128;-74
2022/12/08 05:03:54;;;;;;;14.93;7.00;;;-3.20;1.00;-2.90;93168.00;;;;7396593;19;20136;-75
2022/12/08 05:06:21;;;;;;;15.93;7.43;;;-3.20;1.00;-2.80;93163.00;;;;7396949;19;20131;-75
2022/12/08 05:08:49;;;;;;;17.40;7.33;;;-3.20;1.00;-2.80;93199.00;;;;7395903;19;20153;-75
2022/12/08 05:11:22;;;;;;;13.57;7.27;;;-3.20;1.00;-3.00;93181.00;;;;7396919;19;20158;-76
2022/12/08 05:13:49;;;;;;;16.73;6.90;;;-3.30;1.00;-3.00;93199.00;;;;7397660;19;20147;-75
2022/12/08 05:16:17;;;;;;;16.53;6.77;;;-3.30;1.00;-3.00;93167.00;;;;7403139;19;20134;-75
2022/12/08 05:18:50;;;;;;;18.63;7.10;;;-3.30;1.00;-2.90;93179.00;;;;7402870;19;20139;-75
2022/12/08 05:21:17;;;;;;;16.67;7.13;;;-3.20;1.00;-3.00;93178.00;;;;7403258;19;20529;-74
2022/12/08 05:23:44;;;;;;;15.10;7.30;;;-3.30;1.00;-3.00;93177.00;;;;7404056;19;20470;-75
2022/12/08 05:26:18;;;;;;;14.93;6.90;;;-3.30;1.00;-2.90;93161.00;;;;7402938;19;20469;-75
2022/12/08 05:28:45;;;;;;;16.67;7.00;;;-3.30;1.00;-2.90;93190.00;;;;7403784;19;20488;-75
2022/12/08 05:31:15;;;;;;;13.13;6.60;;;-3.30;1.00;-2.90;93189.00;;;;7402476;19;20159;-74
2022/12/08 05:33:51;;;;;;;12.37;6.23;;;-3.30;1.00;-3.10;93189.00;;;;7403193;19;20134;-75
2022/12/08 05:36:19;;;;;;;16.07;6.70;;;-3.30;1.00;-3.10;93190.00;;;;7402841;19;20583;-76
2022/12/08 05:38:46;;;;;;;13.13;6.20;;;-3.30;1.00;-3.00;93175.00;;;;7403349;19;20547;-75
2022/12/08 05:41:20;;;;;;;12.87;6.77;;;-3.30;1.00;-2.90;93180.00;;;;7404648;19;20204;-75
2022/12/08 05:43:48;;;;;;;13.93;6.70;;;-3.30;1.00;-2.80;93197.00;;;;7396603;19;20168;-75
2022/12/08 05:46:16;;;;;;;12.23;6.20;;;-3.20;1.00;-2.90;93188.00;;;;7395899;19;20505;-76
2022/12/08 05:48:50;;;;;;;15.50;6.80;;;-3.30;1.00;-3.10;93173.00;;;;7403042;19;20124;-75
2022/12/08 05:51:21;;;;;;;11.87;6.27;;;-3.30;1.00;-3.10;93169.00;;;;7401280;19;20163;-76
2022/12/08 05:53:51;;;;;;;12.67;6.07;;;-3.40;1.00;-3.00;93170.00;;;;7402471;19;20183;-76
2022/12/08 05:56:24;;;;;;;14.93;6.27;;;-3.40;1.00;-3.10;93188.00;;;;7397932;19;20680;-75
2022/12/08 05:58:51;;;;;;;10.40;6.30;;;-3.40;1.00;-3.00;93179.00;;;;7402210;19;20533;-75
2022/12/08 06:01:28;;;;;;;12.73;6.17;;;-3.30;1.00;-3.10;93177.00;;;;7402613;19;20143;-75
2022/12/08 06:04:04;;;;;;;14.83;6.17;;;-3.30;1.00;-3.20;93180.00;;;;7401836;19;20212;-75
2022/12/08 06:06:34;;;;;;;12.07;6.23;;;-3.40;1.00;-3.10;93195.00;;;;7401436;19;20175;-75
2022/12/08 06:09:03;;;;;;;12.00;5.77;;;-3.40;1.00;-3.20;93175.00;;;;7404645;19;20141;-75
2022/12/08 06:11:37;;;;;;;14.50;5.63;;;-3.40;1.00;-3.20;93167.00;;;;7400438;19;20166;-74
2022/12/08 06:14:09;;;;;;;13.43;6.10;;;-3.50;1.00;-3.20;93189.00;;;;7401254;19;20170;-75
2022/12/08 06:16:38;;;;;;;11.50;5.67;;;-3.40;1.00;-3.00;93186.00;;;;7401430;19;20640;-75
2022/12/08 06:19:12;;;;;;;14.33;6.07;;;-3.40;1.00;-3.20;93180.00;;;;7401360;19;20203;-75
2022/12/08 06:21:40;;;;;;;15.90;6.63;;;-3.40;1.00;-3.20;93173.00;;;;7401832;19;20194;-75
2022/12/08 06:24:07;;;;;;;13.40;6.03;;;-3.40;1.00;-3.10;93168.00;;;;7402501;19;20130;-76
2022/12/08 06:26:41;;;;;;;13.13;6.07;;;-3.40;1.00;-3.10;93172.00;;;;7399429;19;20143;-75
2022/12/08 06:29:08;;;;;;;11.03;6.23;;;-3.40;1.00;-3.10;93196.00;;;;7400820;19;20637;-76
2022/12/08 06:31:35;;;;;;;11.03;5.60;;;-3.40;1.00;-3.10;93192.00;;;;7401158;19;20594;-74
2022/12/08 06:34:09;;;;;;;10.60;6.23;;;-3.40;1.00;-3.10;93189.00;;;;7401011;19;20604;-75
2022/12/08 06:36:36;;;;;;;11.53;5.77;;;-3.40;1.00;-3.10;93185.00;;;;7401972;19;20603;-75
2022/12/08 06:39:03;;;;;;;11.50;6.00;;;-3.40;1.00;-3.20;93189.00;;;;7400441;19;20130;-73
2022/12/08 06:42:42;;;;;;;12.77;5.50;;;-3.40;1.00;-3.30;93189.00;;;;7402576;19;20597;-75
2022/12/08 06:44:25;;;;;;;9.27;5.43;;;-3.40;99.90;-3.10;93184.00;;;;7400710;19;20143;-75
2022/12/08 06:47:05;;;;;;;12.70;5.97;;;-3.40;1.40;-3.10;93173.00;;;;7398785;19;20163;-75
2022/12/08 06:49:32;;;;;;;10.37;5.20;;;-3.30;99.90;-3.00;93161.00;;;;7399499;19;20139;-74
2022/12/08 06:52:06;;;;;;;14.77;5.40;;;-3.30;1.00;-3.10;93197.00;;;;7398641;19;20473;-75
2022/12/08 06:54:33;;;;;;;15.87;6.47;;;-3.30;99.90;-2.90;93188.00;;;;7399139;19;20131;-75
2022/12/08 06:57:00;;;;;;;8.17;5.10;;;-3.30;99.90;-2.90;93184.00;;;;7396466;19;20151;-75
2022/12/08 06:59:34;;;;;;;11.30;5.17;;;-3.20;99.90;-3.00;93188.00;;;;7399521;19;20675;-75
2022/12/08 07:02:02;;;;;;;11.33;5.53;;;-3.20;99.90;-3.10;93179.00;;;;7399136;19;20131;-75
2022/12/08 07:04:30;;;;;;;9.97;5.23;;;-3.20;99.90;-3.00;93192.00;;;;7399375;19;20203;-75
2022/12/08 07:07:03;;;;;;;10.30;4.53;;;-3.20;99.90;-3.00;93198.00;;;;7400200;19;20207;-75
2022/12/08 07:09:30;;;;;;;8.47;5.50;;;-3.20;99.90;-3.00;93187.00;;;;7398998;19;20648;-75
2022/12/08 07:11:57;;;;;;;9.67;5.33;;;-3.20;99.90;-2.90;93182.00;;;;7399409;19;20464;-75
2022/12/08 07:14:31;;;;;;;9.87;5.30;;;-3.20;99.90;-2.90;93189.00;;;;7399135;19;20197;-75
2022/12/08 07:16:59;;;;;;;11.33;5.67;;;-3.20;99.90;-2.90;93198.00;;;;7398854;19;20157;-75
2022/12/08 07:19:26;;;;;;;12.90;5.33;;;-3.10;99.90;-2.90;93182.00;;;;7399166;19;20674;-76
2022/12/08 07:21:59;;;;;;;8.57;4.93;;;-3.20;99.90;-2.70;93178.00;;;;7400436;19;20572;-75
2022/12/08 07:24:26;;;;;;;9.97;5.33;;;-3.10;99.90;-2.80;93204.00;;;;7398252;19;20135;-74
2022/12/08 07:26:53;;;;;;;7.90;4.73;;;-3.00;99.90;-2.60;93172.00;;;;7397840;19;20183;-73
2022/12/08 07:29:27;;;;;;;11.03;5.50;;;-3.00;99.90;-2.40;93201.00;;;;7398986;19;20539;-75
2022/12/08 07:31:54;;;;;;;14.17;5.80;;;-2.90;99.90;-2.50;93187.00;;;;7397634;19;20154;-75
2022/12/08 07:34:21;;;;;;;12.50;5.40;;;-2.90;99.90;-2.40;93200.00;;;;7399371;19;20213;-75
2022/12/08 07:36:55;;;;;;;12.50;5.80;;;-2.90;99.90;-2.40;93201.00;;;;7399822;19;20139;-75
2022/12/08 07:39:23;;;;;;;10.80;5.17;;;-2.80;99.90;-2.40;93206.00;;;;7398217;19;20161;-75
2022/12/08 07:41:50;;;;;;;12.03;5.00;;;-2.80;99.90;-2.30;93201.00;;;;7394548;19;20801;-75
2022/12/08 07:44:23;;;;;;;8.87;4.70;;;-2.80;99.90;-2.30;93205.00;;;;7397211;19;20160;-74
2022/12/08 07:46:57;;;;;;;8.80;5.23;;;-2.80;99.90;-2.10;93196.00;;;;7396187;19;20151;-75
2022/12/08 07:49:30;;;;;;;8.23;5.37;;;-2.60;99.90;-2.10;93180.00;;;;7398998;19;20131;-75
2022/12/08 07:51:57;;;;;;;9.00;5.13;;;-2.60;99.90;-2.00;93179.00;;;;7398306;19;20131;-74
2022/12/08 07:54:26;;;;;;;10.93;5.00;;;-2.50;99.90;-2.10;93177.00;;;;7398756;19;20583;-74
2022/12/08 07:57:02;;;;;;;10.67;4.90;;;-2.40;99.90;-1.90;93178.00;;;;7395466;19;20587;-75
2022/12/08 07:59:29;;;;;;;7.73;4.87;;;-2.30;99.90;-1.80;93190.00;;;;7399179;19;20135;-74
2022/12/08 08:01:56;;;;;;;8.13;5.07;;;-2.20;99.90;-1.70;93171.00;;;;7398801;19;20592;-74
2022/12/08 08:04:50;;;;;;;6.73;4.60;;;-2.20;99.90;-1.50;93181.00;;;;7396739;19;20503;-75
2022/12/08 08:07:17;;;;;;;7.13;4.27;;;-2.10;39.80;-1.30;93159.00;;;;7397634;19;20683;-75
2022/12/08 08:09:51;;;;;;;9.83;4.30;;;-2.00;1.00;-1.60;93169.00;;;;7397510;19;20563;-75
2022/12/08 08:12:18;;;;;;;11.47;4.20;;;-1.80;1.00;-1.20;93159.00;;;;7395958;19;20141;-74
2022/12/08 08:14:59;;;;;;;6.70;4.00;;;-1.70;1.00;-0.90;93169.00;;;;7395109;19;20179;-74
2022/12/08 08:17:36;;;;;;;5.50;3.80;;;-1.60;1.00;-1.00;93161.00;;;;7396759;19;20175;-75
2022/12/08 08:20:07;;;;;;;8.40;4.40;;;-1.40;1.00;-0.90;93169.00;;;;7395482;19;20617;-75
2022/12/08 08:22:40;;;;;;;7.27;4.47;;;-1.20;1.00;-0.90;93171.00;;;;7396709;19;20167;-75
2022/12/08 08:25:08;;;;;;;6.70;3.83;;;-1.10;99.90;-0.40;93182.00;;;;7398955;19;20464;-75
2022/12/08 08:27:35;;;;;;;5.97;3.90;;;-1.00;99.90;-0.30;93177.00;;;;7396559;19;20145;-76
2022/12/08 08:30:11;;;;;;;7.17;3.83;;;-0.80;99.90;-0.30;93175.00;;;;7397150;19;20489;-76
2022/12/08 08:32:47;;;;;;;7.67;3.37;;;-0.60;98.80;0.00;93161.00;;;;7396667;19;20132;-76
2022/12/08 08:35:20;;;;;;;5.53;3.70;;;-0.40;44.70;0.30;93156.00;;;;7395725;19;20148;-77
2022/12/08 08:37:47;;;;;;;4.43;3.10;;;-0.10;1.00;0.70;93170.00;;;;7396408;19;20156;-77
2022/12/08 08:40:16;;;;;;;4.50;3.37;;;0.00;1.00;0.90;93165.00;;;;7396160;19;20497;-77
2022/12/08 08:42:50;;;;;;;3.97;2.80;;;0.20;1.00;0.90;93143.00;;;;7398142;19;20116;-77
2022/12/08 08:45:24;;;;;;;4.40;2.63;;;0.50;99.90;1.00;93165.00;;;;7396220;19;20533;-77
2022/12/08 08:48:05;;;;;;;5.60;3.00;;;0.80;99.90;1.50;93161.00;;;;7396171;19;20626;-76
2022/12/08 08:50:32;;;;;;;3.03;2.67;;;1.00;1.00;1.70;93163.00;;;;7394820;19;20148;-76
2022/12/08 08:53:05;;;;;;;3.30;2.57;;;1.30;99.90;2.20;93160.00;;;;7396540;19;20580;-76
2022/12/08 08:55:32;;;;;;;3.50;2.77;;;1.70;99.90;2.50;93169.00;;;;7394889;19;20148;-76
2022/12/08 08:57:59;;;;;;;3.17;2.70;;;1.70;1.00;2.90;93140.00;;;;7393519;19;20136;-76
2022/12/08 09:00:32;;;;;;;3.23;2.27;;;1.90;1.00;2.70;93154.00;;;;7395939;19;20159;-77
2022/12/08 09:02:59;;;;;;;3.10;2.27;;;2.20;99.90;2.70;93146.00;;;;7395033;19;20140;-76
2022/12/08 09:05:26;;;;;;;3.40;2.70;;;2.40;99.90;3.30;93135.00;;;;7396531;19;20460;-78
2022/12/08 09:08:00;;;;;;;3.87;2.60;;;2.30;99.90;3.50;93137.00;;;;7395363;19;20623;-78
2022/12/08 09:10:27;;;;;;;3.13;2.20;;;2.30;99.90;3.60;93134.00;;;;7395636;19;20604;-77
2022/12/08 09:12:54;;;;;;;3.73;2.47;;;2.50;1.00;3.10;93131.00;;;;7391439;19;20169;-78
2022/12/08 09:15:28;;;;;;;2.97;2.23;;;2.40;45.60;3.50;93153.00;;;;7393526;19;20172;-77
2022/12/08 09:17:55;;;;;;;3.33;2.70;;;2.40;1.00;3.90;93139.00;;;;7394755;19;20121;-77
2022/12/08 09:20:23;;;;;;;3.53;2.27;;;2.40;1.00;4.30;93142.00;;;;7395608;19;20177;-77
2022/12/08 09:22:56;;;;;;;3.03;2.20;;;2.30;1.00;3.40;93138.00;;;;7396596;19;20139;-77
2022/12/08 09:25:23;;;;;;;2.70;2.40;;;2.50;1.00;4.30;93125.00;;;;7394620;19;20216;-77
2022/12/08 09:27:50;;;;;;;3.53;2.47;;;2.70;1.00;4.80;93134.00;;;;7396321;19;20150;-76
2022/12/08 09:30:24;;;;;;;4.23;2.80;;;2.80;99.90;3.80;93142.00;;;;7394587;19;20149;-78
2022/12/08 09:32:51;;;;;;;3.00;2.07;;;3.20;99.90;3.80;93138.00;;;;7394730;19;20668;-75
2022/12/08 09:35:18;;;;;;;2.93;2.10;;;3.60;1.00;5.10;93124.00;;;;7393850;19;20149;-76
2022/12/08 09:37:52;;;;;;;3.33;2.37;;;3.50;99.90;4.60;93135.00;;;;7394099;19;20149;-76
2022/12/08 09:40:22;;;;;;;3.97;2.30;;;3.60;99.90;4.40;93127.00;;;;7394350;19;20141;-75
2022/12/08 09:43:22;;;;;;;2.63;2.10;;;4.00;99.90;4.70;93139.00;;;;7397218;19;20171;-76
2022/12/08 09:46:03;;;;;;;2.93;2.10;;;4.10;99.90;4.30;93132.00;;;;7393671;19;20699;-74
2022/12/08 09:48:46;;;;;;;3.03;2.20;;;4.30;99.90;4.80;93132.00;;;;7393078;19;20140;-75
2022/12/08 09:51:29;;;;;;;3.03;2.20;;;4.30;99.90;5.30;93140.00;;;;7396202;19;20151;-74
2022/12/08 09:54:17;;;;;;;3.50;2.20;;;3.90;99.90;5.30;93129.00;;;;7386451;19;20144;-76
2022/12/08 09:56:58;;;;;;;3.37;2.03;;;;;5.90;93128.00;;;;7387901;19;20495;-78
2022/12/08 09:59:34;;;;;;;2.77;2.20;;;3.50;99.90;5.80;93125.00;;;;7395052;19;20129;-76
2022/12/08 10:02:23;;;;;;;3.63;2.00;;;4.00;99.90;6.40;93120.00;;;;7397963;19;20160;-75
2022/12/08 10:04:54;;;;;;;2.70;2.00;;;4.40;99.90;5.90;93133.00;;;;7400135;19;20483;-76
2022/12/08 10:07:38;;;;;;;3.50;2.10;;;5.20;99.90;7.50;93129.00;;;;7400237;19;20144;-74
2022/12/08 10:10:35;;;;;;;2.53;1.70;;;5.40;99.90;6.40;93128.00;;;;7400467;19;20159;-74
2022/12/08 10:13:18;;;;;;;3.27;1.87;;;5.20;77.30;7.00;93118.00;;;;7399581;19;21052;-74
2022/12/08 10:16:14;;;;;;;2.85;1.98;;;5.40;1.00;8.20;93084.00;;;;7401637;19;20518;-74
2022/12/08 10:19:12;;;;;;;2.88;2.28;;;5.30;1.00;8.40;93106.00;;;;7400612;19;20164;-76
2022/12/08 10:21:39;;;;;;;3.03;2.08;;;6.70;99.90;8.90;93096.00;;;;7401120;19;20165;-76
2022/12/08 10:24:47;;;;;;;2.05;1.85;;;7.90;99.90;9.40;93090.00;;;;7399927;19;20163;-77
2022/12/08 10:27:14;;;;;;;5.03;1.85;;;8.40;99.90;8.40;93107.00;;;;7400660;19;20147;-77
2022/12/08 10:29:48;;;;;;;3.83;1.98;;;8.20;12.20;8.40;93095.00;;;;7400177;19;20151;-77
2022/12/08 10:32:24;;;;;;;2.83;1.98;;;7.30;1.00;7.00;93123.00;;;;7401188;19;20135;-76
2022/12/08 10:35:11;;;;;;;2.35;1.73;;;6.80;1.00;5.40;93125.00;;;;7400222;19;20160;-77
2022/12/08 10:37:38;;;;;;;2.33;1.80;;;6.20;1.00;5.10;93133.00;;;;7399743;19;20140;-76
2022/12/08 10:40:16;;;;;;;1.80;1.67;;;5.70;1.00;4.60;93105.00;;;;7401681;19;20141;-74
2022/12/08 10:42:52;;;;;;;3.70;2.10;;;4.90;1.00;4.20;93121.00;;;;7400112;19;20171;-75
2022/12/08 10:45:34;;;;;;;2.10;1.90;;;4.50;3.10;3.40;93129.00;;;;7399454;19;20144;-75
2022/12/08 10:48:20;;;;;;;2.77;2.07;;;4.30;19.90;3.30;93122.00;;;;7400329;19;20477;-74
2022/12/08 10:50:56;;;;;;;2.63;1.73;;;3.60;91.50;2.30;93137.00;;;;7399397;19;20623;-75
2022/12/08 10:53:30;;;;;;;3.30;2.00;;;3.20;99.90;1.50;93131.00;;;;7399816;19;20133;-75
2022/12/08 10:56:03;;;;;;;2.63;1.90;;;3.00;99.90;1.90;93115.00;;;;7400698;19;20136;-76
2022/12/08 10:58:40;;;;;;;3.90;1.83;;;2.60;99.90;2.10;93118.00;;;;7395650;19;20160;-75
2022/12/08 11:01:28;;;;;;;4.63;3.47;;;2.30;99.90;2.00;93106.00;;;;7398778;19;20136;-76
2022/12/08 11:04:14;;;;;;;4.93;3.50;;;2.20;99.90;2.00;93102.00;;;;7399900;19;20151;-75
2022/12/08 11:06:50;;;;;;;6.43;4.07;;;2.10;99.90;2.10;93108.00;;;;7399645;19;20615;-75
2022/12/08 11:09:17;;;;;;;4.57;3.00;;;2.00;99.90;2.20;93115.00;;;;7399985;19;20124;-75
2022/12/08 11:11:49;;;;;;;4.60;4.10;;;2.00;1.00;2.20;93110.00;;;;7396229;19;20620;-75
2022/12/08 11:14:44;;;;;;;4.43;3.53;;;2.00;1.00;2.10;93103.00;;;;7395764;19;20149;-75
2022/12/08 11:17:25;;;;;;;5.30;3.53;;;1.90;1.00;2.00;93101.00;;;;7398791;19;20149;-75
2022/12/08 11:20:18;;;;;;;5.03;3.83;;;1.90;1.00;1.90;93105.00;;;;7398220;19;20195;-75
2022/12/08 11:22:52;;;;;;;4.40;3.07;;;1.80;99.90;1.80;93097.00;;;;7398725;19;20165;-76
2022/12/08 11:25:33;;;;;;;5.03;2.93;;;1.70;99.90;1.70;93083.00;;;;7397703;19;20453;-75
2022/12/08 11:28:01;;;;;;;4.37;2.20;;;1.60;99.90;1.80;93091.00;;;;7399433;19;20125;-75
2022/12/08 11:30:42;;;;;;;3.57;1.93;;;1.50;99.90;1.60;93070.00;;;;7398081;19;20140;-76
2022/12/08 11:33:19;;;;;;;2.27;1.80;;;1.30;99.90;1.60;93075.00;;;;7395952;19;20140;-75
2022/12/08 11:36:06;;;;;;;1.77;1.67;;;1.30;99.90;1.40;93078.00;;;;7397375;19;20663;-76
2022/12/08 11:38:40;;;;;;;2.77;1.77;;;1.20;99.90;1.30;93088.00;;;;7397733;19;20163;-75